createdAt,value
2018-09-04T00:00:44.210Z,27.23
2018-09-04T00:03:12.197Z,26.77
2018-09-04T00:05:40.214Z,26.53
2018-09-04T00:08:09.441Z,26.37
2018-09-04T00:10:39.805Z,26.00
2018-09-04T00:13:08.482Z,26.70
2018-09-04T00:15:37.502Z,26.43
2018-09-04T00:18:06.141Z,24.00
2018-09-04T00:20:35.422Z,24.37
2018-09-04T00:23:04.797Z,24.77
2018-09-04T00:25:32.860Z,24.60
2018-09-04T00:28:01.628Z,24.10
2018-09-04T00:30:30.818Z,24.33
2018-09-04T00:32:59.672Z,24.47
2018-09-04T00:35:27.658Z,24.83
2018-09-04T00:37:56.074Z,24.93
2018-09-04T00:40:24.618Z,25.33
2018-09-04T00:42:53.462Z,25.00
2018-09-04T00:45:21.434Z,25.43
2018-09-04T00:47:50.326Z,26.40
2018-09-04T00:50:18.774Z,26.20
2018-09-04T00:52:48.477Z,27.43
2018-09-04T00:55:17.405Z,28.40
2018-09-04T00:57:46.172Z,30.43
2018-09-04T01:00:15.317Z,29.70
2018-09-04T01:02:46.078Z,31.20
2018-09-04T01:05:14.101Z,32.07
2018-09-04T01:07:42.762Z,31.23
2018-09-04T01:10:12.239Z,31.70
2018-09-04T01:12:40.217Z,31.37
2018-09-04T01:15:08.299Z,32.37
2018-09-04T01:17:37.732Z,30.63
2018-09-04T01:20:05.913Z,28.70
2018-09-04T01:22:33.856Z,28.60
2018-09-04T01:25:02.646Z,27.40
2018-09-04T01:27:30.612Z,26.73
2018-09-04T01:30:00.709Z,26.60
2018-09-04T01:32:28.898Z,26.37
2018-09-04T01:34:58.146Z,25.90
2018-09-04T01:37:26.152Z,26.97
2018-09-04T01:39:54.487Z,24.53
2018-09-04T01:42:23.208Z,25.77
2018-09-04T01:44:51.277Z,23.60
2018-09-04T01:47:20.209Z,26.17
2018-09-04T01:49:48.318Z,24.43
2018-09-04T01:52:16.453Z,24.37
2018-09-04T01:54:45.265Z,25.13
2018-09-04T01:57:13.302Z,25.20
2018-09-04T01:59:41.744Z,23.73
2018-09-04T02:02:10.932Z,23.60
2018-09-04T02:04:42.338Z,23.97
2018-09-04T02:07:10.909Z,23.57
2018-09-04T02:09:39.462Z,24.07
2018-09-04T02:12:08.200Z,25.47
2018-09-04T02:14:36.192Z,25.90
2018-09-04T02:17:05.796Z,24.97
2018-09-04T02:19:34.483Z,25.17
2018-09-04T02:22:04.718Z,24.57
2018-09-04T02:24:34.541Z,26.33
2018-09-04T02:27:03.534Z,25.03
2018-09-04T02:29:32.073Z,25.47
2018-09-04T02:32:01.281Z,25.57
2018-09-04T02:34:30.405Z,26.17
2018-09-04T02:36:59.299Z,26.10
2018-09-04T02:39:28.591Z,26.87
2018-09-04T02:41:57.631Z,23.80
2018-09-04T02:44:25.699Z,24.07
2018-09-04T02:46:53.776Z,25.07
2018-09-04T02:49:21.790Z,24.80
2018-09-04T02:51:50.393Z,25.20
2018-09-04T02:54:18.485Z,23.23
2018-09-04T02:56:46.423Z,23.67
2018-09-04T02:59:15.219Z,24.93
2018-09-04T03:01:43.235Z,23.77
2018-09-04T03:04:11.923Z,22.10
2018-09-04T03:06:41.685Z,22.23
2018-09-04T03:09:10.311Z,20.07
2018-09-04T03:11:38.579Z,21.37
2018-09-04T03:14:07.409Z,20.73
2018-09-04T03:16:35.372Z,21.00
2018-09-04T03:19:04.142Z,21.90
2018-09-04T03:21:32.127Z,22.83
2018-09-04T03:24:00.126Z,21.70
2018-09-04T03:26:29.025Z,20.30
2018-09-04T03:28:58.385Z,19.73
2018-09-04T03:31:28.129Z,21.90
2018-09-04T03:33:56.102Z,22.27
2018-09-04T03:36:24.767Z,20.73
2018-09-04T03:38:53.266Z,22.33
2018-09-04T03:41:21.209Z,22.80
2018-09-04T03:43:49.202Z,21.80
2018-09-04T03:46:19.110Z,20.80
2018-09-04T03:48:48.378Z,22.37
2018-09-04T03:51:18.265Z,22.07
2018-09-04T03:53:46.322Z,19.57
2018-09-04T03:56:15.410Z,19.23
2018-09-04T03:58:45.169Z,18.93
2018-09-04T04:01:13.775Z,19.50
2018-09-04T04:03:43.389Z,17.77
2018-09-04T04:06:11.411Z,18.50
2018-09-04T04:08:41.425Z,19.43
2018-09-04T04:11:10.562Z,20.27
2018-09-04T04:13:38.593Z,20.47
2018-09-04T04:16:07.862Z,20.40
2018-09-04T04:18:37.366Z,20.87
2018-09-04T04:21:08.270Z,20.23
2018-09-04T04:23:36.978Z,19.70
2018-09-04T04:26:05.693Z,21.57
2018-09-04T04:28:33.746Z,21.33
2018-09-04T04:31:01.769Z,21.40
2018-09-04T04:33:29.771Z,20.50
2018-09-04T04:35:57.721Z,22.33
2018-09-04T04:38:25.804Z,20.90
2018-09-04T04:40:53.860Z,20.77
2018-09-04T04:43:21.917Z,22.23
2018-09-04T04:46:21.310Z,19.93
2018-09-04T04:48:50.230Z,21.27
2018-09-04T04:51:18.631Z,20.57
2018-09-04T04:53:47.311Z,20.50
2018-09-04T04:56:16.009Z,19.40
2018-09-04T04:58:43.937Z,18.53
2018-09-04T05:01:12.331Z,18.90
2018-09-04T05:03:40.830Z,18.17
2018-09-04T05:06:09.329Z,19.17
2018-09-04T05:08:40.001Z,15.40
2018-09-04T05:11:09.472Z,17.00
2018-09-04T05:13:37.504Z,15.83
2018-09-04T05:16:07.228Z,14.47
2018-09-04T05:18:35.726Z,14.90
2018-09-04T05:21:03.785Z,15.87
2018-09-04T05:23:32.615Z,15.27
2018-09-04T05:26:01.261Z,14.53
2018-09-04T05:28:29.266Z,13.83
2018-09-04T05:30:57.261Z,13.20
2018-09-04T05:33:55.841Z,13.13
2018-09-04T05:36:23.907Z,14.67
2018-09-04T05:38:51.895Z,14.13
2018-09-04T05:41:19.837Z,13.97
2018-09-04T05:43:50.827Z,15.07
2018-09-04T05:46:55.256Z,14.90
2018-09-04T05:49:28.158Z,13.60
2018-09-04T05:51:56.182Z,14.63
2018-09-04T05:54:24.200Z,13.27
2018-09-04T05:56:52.851Z,13.80
2018-09-04T05:59:21.800Z,13.60
2018-09-04T06:01:49.774Z,13.17
2018-09-04T06:04:18.725Z,13.93
2018-09-04T06:06:46.625Z,14.70
2018-09-04T06:09:16.783Z,13.83
2018-09-04T06:11:45.591Z,13.97
2018-09-04T06:14:15.325Z,12.73
2018-09-04T06:16:44.094Z,12.90
2018-09-04T06:19:12.862Z,13.03
2018-09-04T06:21:45.135Z,12.37
2018-09-04T06:24:13.146Z,12.83
2018-09-04T06:26:41.688Z,13.83
2018-09-04T06:29:10.209Z,14.27
2018-09-04T06:31:38.154Z,14.43
2018-09-04T06:34:06.286Z,13.30
2018-09-04T06:36:34.363Z,13.77
2018-09-04T06:39:02.939Z,13.10
2018-09-04T06:41:31.570Z,13.27
2018-09-04T06:44:00.120Z,12.70
2018-09-04T06:46:28.225Z,13.83
2018-09-04T06:48:57.666Z,15.00
2018-09-04T06:51:25.686Z,13.23
2018-09-04T06:53:54.665Z,13.93
2018-09-04T06:56:22.749Z,13.70
2018-09-04T06:58:51.994Z,13.57
2018-09-04T07:01:21.089Z,13.87
2018-09-04T07:03:49.837Z,14.57
2018-09-04T07:06:17.805Z,14.40
2018-09-04T07:08:45.813Z,14.03
2018-09-04T07:11:13.739Z,14.30
2018-09-04T07:13:41.730Z,14.13
2018-09-04T07:16:10.775Z,15.18
2018-09-04T07:18:38.748Z,14.07
2018-09-04T07:21:07.706Z,15.30
2018-09-04T07:23:36.314Z,15.13
2018-09-04T07:26:05.280Z,14.43
2018-09-04T07:28:33.259Z,14.67
2018-09-04T07:31:03.005Z,14.73
2018-09-04T07:33:32.670Z,14.13
2018-09-04T07:36:02.793Z,14.80
2018-09-04T07:38:30.729Z,14.27
2018-09-04T07:40:58.777Z,14.90
2018-09-04T07:43:43.670Z,14.37
2018-09-04T07:46:11.593Z,15.60
2018-09-04T07:48:40.312Z,15.27
2018-09-04T07:51:08.331Z,15.13
2018-09-04T07:53:36.997Z,14.70
2018-09-04T07:56:05.032Z,13.63
2018-09-04T07:58:36.190Z,15.33
2018-09-04T08:01:04.621Z,14.20
2018-09-04T08:03:33.128Z,14.87
2018-09-04T08:06:02.767Z,14.50
2018-09-04T08:08:32.981Z,14.37
2018-09-04T08:11:01.012Z,14.70
2018-09-04T08:13:33.433Z,16.03
2018-09-04T08:16:04.457Z,16.70
2018-09-04T08:18:32.431Z,17.97
2018-09-04T08:21:00.416Z,16.27
2018-09-04T08:23:29.168Z,16.67
2018-09-04T08:25:57.195Z,17.37
2018-09-04T08:28:27.621Z,16.27
2018-09-04T08:30:55.682Z,16.27
2018-09-04T08:33:26.881Z,17.23
2018-09-04T08:35:57.053Z,16.20
2018-09-04T08:38:25.758Z,16.00
2018-09-04T08:40:57.466Z,15.03
2018-09-04T08:43:25.616Z,15.80
2018-09-04T08:45:54.335Z,16.27
2018-09-04T08:48:22.303Z,16.77
2018-09-04T08:50:51.425Z,17.00
2018-09-04T08:53:23.022Z,16.03
2018-09-04T08:55:51.508Z,15.40
2018-09-04T08:58:19.454Z,16.70
2018-09-04T09:00:47.561Z,17.13
2018-09-04T09:03:17.685Z,17.17
2018-09-04T09:05:47.306Z,17.07
2018-09-04T09:08:17.354Z,17.13
2018-09-04T09:10:46.491Z,16.43
2018-09-04T09:13:16.969Z,17.10
2018-09-04T09:15:47.786Z,16.77
2018-09-04T09:18:18.982Z,16.50
2018-09-04T09:20:47.492Z,15.90
2018-09-04T09:23:17.806Z,16.53
2018-09-04T09:25:47.034Z,17.40
2018-09-04T09:28:17.361Z,17.33
2018-09-04T09:30:48.573Z,15.73
2018-09-04T09:33:16.758Z,17.07
2018-09-04T09:35:44.806Z,18.23
2018-09-04T09:38:13.277Z,17.17
2018-09-04T09:40:41.434Z,16.97
2018-09-04T09:43:10.525Z,19.40
2018-09-04T09:45:39.801Z,17.50
2018-09-04T09:48:10.620Z,18.77
2018-09-04T09:50:40.108Z,18.90
2018-09-04T09:53:08.910Z,18.40
2018-09-04T09:55:36.763Z,18.37
2018-09-04T09:58:06.138Z,17.83
2018-09-04T10:00:39.470Z,18.30
2018-09-04T10:03:13.678Z,19.17
2018-09-04T10:05:44.653Z,19.07
2018-09-04T10:08:13.625Z,19.50
2018-09-04T10:10:41.705Z,18.73
2018-09-04T10:13:12.425Z,19.47
2018-09-04T10:15:41.340Z,20.83
2018-09-04T10:18:10.631Z,20.70
2018-09-04T10:20:39.326Z,20.57
2018-09-04T10:23:08.041Z,20.07
2018-09-04T10:25:35.982Z,21.07
2018-09-04T10:28:05.984Z,21.73
2018-09-04T10:30:35.213Z,20.80
2018-09-04T10:33:03.319Z,23.33
2018-09-04T10:35:32.095Z,21.50
2018-09-04T10:38:03.611Z,21.60
2018-09-04T10:40:40.709Z,22.57
2018-09-04T10:43:08.599Z,21.37
2018-09-04T10:45:42.049Z,22.97
2018-09-04T10:48:16.843Z,22.30
2018-09-04T10:50:44.865Z,22.93
2018-09-04T10:53:12.766Z,21.27
2018-09-04T10:55:40.945Z,20.53
2018-09-04T10:58:09.730Z,18.57
2018-09-04T11:00:38.303Z,19.30
2018-09-04T11:03:08.235Z,19.13
2018-09-04T11:05:37.669Z,19.23
2018-09-04T11:08:05.646Z,21.47
2018-09-04T11:10:33.686Z,20.47
2018-09-04T11:13:02.756Z,20.10
2018-09-04T11:15:30.732Z,20.00
2018-09-04T11:17:58.729Z,21.10
2018-09-04T11:20:28.494Z,20.00
2018-09-04T11:23:00.417Z,18.90
2018-09-04T11:25:28.366Z,21.30
2018-09-04T11:27:56.284Z,20.23
2018-09-04T11:30:24.270Z,20.57
2018-09-04T11:32:52.492Z,20.20
2018-09-04T11:35:20.591Z,20.97
2018-09-04T11:37:48.549Z,19.40
2018-09-04T11:40:19.891Z,19.87
2018-09-04T11:42:47.828Z,20.83
2018-09-04T11:45:15.842Z,18.70
2018-09-04T11:47:43.917Z,17.70
2018-09-04T11:50:12.861Z,17.40
2018-09-04T11:52:41.428Z,17.97
2018-09-04T11:55:09.985Z,18.17
2018-09-04T11:57:38.735Z,17.40
2018-09-04T12:00:08.716Z,16.53
2018-09-04T12:02:38.579Z,16.50
2018-09-04T12:05:06.590Z,16.33
2018-09-04T12:07:35.514Z,15.97
2018-09-04T12:10:07.216Z,16.50
2018-09-04T12:12:35.711Z,15.37
2018-09-04T12:15:03.571Z,15.43
2018-09-04T12:17:31.489Z,14.87
2018-09-04T12:21:09.750Z,14.87
2018-09-04T12:23:37.775Z,14.20
2018-09-04T12:26:10.251Z,12.70
2018-09-04T12:28:39.466Z,14.03
2018-09-04T12:31:09.354Z,12.17
2018-09-04T12:33:38.813Z,12.00
2018-09-04T12:36:07.404Z,12.23
2018-09-04T12:38:38.314Z,12.80
2018-09-04T12:41:11.033Z,12.53
2018-09-04T12:43:38.971Z,12.27
2018-09-04T12:46:07.107Z,12.13
2018-09-04T12:48:35.671Z,12.50
2018-09-04T12:51:03.774Z,11.50
2018-09-04T12:53:32.615Z,11.17
2018-09-04T12:56:00.651Z,10.13
2018-09-04T12:58:29.538Z,10.67
2018-09-04T13:00:58.525Z,10.77
2018-09-04T13:03:28.384Z,11.30
2018-09-04T13:05:56.501Z,11.03
2018-09-04T13:08:26.030Z,10.97
2018-09-04T13:10:54.043Z,10.90
2018-09-04T13:13:22.886Z,10.90
2018-09-04T13:15:54.374Z,11.13
2018-09-04T13:18:22.624Z,11.53
2018-09-04T13:20:50.687Z,10.97
2018-09-04T13:23:21.538Z,10.67
2018-09-04T13:25:49.557Z,11.20
2018-09-04T13:28:18.210Z,11.17
2018-09-04T13:30:46.224Z,10.00
2018-09-04T13:33:14.177Z,10.07
2018-09-04T13:35:42.878Z,11.70
2018-09-04T13:38:10.789Z,9.83
2018-09-04T13:40:40.266Z,10.67
2018-09-04T13:43:08.854Z,10.70
2018-09-04T13:45:36.888Z,11.63
2018-09-04T13:48:07.472Z,13.77
2018-09-04T13:50:39.359Z,12.50
2018-09-04T13:53:09.056Z,12.83
2018-09-04T13:55:37.597Z,12.13
2018-09-04T13:58:07.329Z,12.80
2018-09-04T14:00:39.755Z,12.13
2018-09-04T14:06:22.151Z,12.80
2018-09-04T14:09:04.966Z,13.17
2018-09-04T14:11:33.735Z,12.23
2018-09-04T14:14:04.173Z,11.60
2018-09-04T14:16:43.156Z,11.87
2018-09-04T14:19:03.133Z,11.50
2018-09-04T14:21:36.966Z,12.93
2018-09-04T14:24:06.535Z,11.07
2018-09-04T14:26:34.782Z,12.10
2018-09-04T14:29:06.963Z,11.83
2018-09-04T14:31:34.411Z,11.87
2018-09-04T14:34:19.044Z,11.47
2018-09-04T14:36:48.337Z,11.77
2018-09-04T14:39:17.474Z,21.17
2018-09-04T14:41:49.255Z,13.00
2018-09-04T14:44:18.041Z,12.53
2018-09-04T14:47:07.994Z,14.47
2018-09-04T14:49:43.477Z,12.20
2018-09-04T14:52:29.489Z,12.60
2018-09-04T14:55:08.376Z,12.70
2018-09-04T14:57:40.189Z,11.90
2018-09-04T15:00:09.031Z,12.03
2018-09-04T15:02:40.969Z,12.83
2018-09-04T15:05:09.810Z,13.30
2018-09-04T15:07:41.102Z,13.00
2018-09-04T15:10:09.301Z,12.73
2018-09-04T15:12:43.395Z,13.83
2018-09-04T15:15:46.806Z,13.70
2018-09-04T15:18:15.543Z,13.60
2018-09-04T15:20:45.790Z,13.73
2018-09-04T15:25:58.347Z,13.20
2018-09-04T15:29:13.306Z,14.53
2018-09-04T15:34:55.047Z,13.17
2018-09-04T15:37:25.393Z,13.20
2018-09-04T15:39:54.431Z,12.70
2018-09-04T15:42:23.576Z,13.50
2018-09-04T15:44:53.754Z,12.87
2018-09-04T15:47:30.854Z,12.23
2018-09-04T15:50:00.161Z,12.93
2018-09-04T15:52:32.724Z,12.60
2018-09-04T15:55:00.754Z,13.33
2018-09-04T15:57:46.886Z,12.60
2018-09-04T16:00:49.577Z,12.43
2018-09-04T16:03:22.371Z,12.53
2018-09-04T16:05:51.451Z,12.57
2018-09-04T16:08:22.757Z,12.27
2018-09-04T16:11:10.985Z,11.63
2018-09-04T16:14:05.164Z,11.67
2018-09-04T16:16:55.421Z,11.97
2018-09-04T16:19:59.142Z,12.50
2018-09-04T16:22:35.070Z,11.23
2018-09-04T16:25:04.775Z,12.10
2018-09-04T16:27:37.124Z,12.83
2018-09-04T16:30:14.226Z,12.40
2018-09-04T16:32:59.337Z,13.27
2018-09-04T16:35:44.579Z,13.97
2018-09-04T16:38:14.377Z,12.87
2018-09-04T16:40:43.760Z,12.87
2018-09-04T16:43:20.985Z,12.13
2018-09-04T16:45:50.016Z,12.23
2018-09-04T16:48:22.216Z,11.47
2018-09-04T16:50:56.241Z,17.37
2018-09-04T16:53:26.398Z,11.87
2018-09-04T16:55:55.440Z,10.90
2018-09-04T16:58:24.723Z,10.93
2018-09-04T17:00:55.744Z,11.90
2018-09-04T17:03:29.020Z,11.60
2018-09-04T17:06:13.119Z,10.87
2018-09-04T17:08:48.578Z,10.97
2018-09-04T17:11:22.482Z,11.50
2018-09-04T17:14:19.294Z,13.17
2018-09-04T17:17:14.965Z,12.00
2018-09-04T17:19:47.615Z,11.50
2018-09-04T17:22:19.925Z,11.83
2018-09-04T17:24:51.297Z,13.07
2018-09-04T17:27:20.782Z,13.67
2018-09-04T17:29:53.486Z,12.77
2018-09-04T17:32:25.365Z,12.80
2018-09-04T17:35:13.948Z,13.13
2018-09-04T17:37:58.828Z,12.97
2018-09-04T17:40:30.986Z,13.27
2018-09-04T17:43:00.171Z,14.30
2018-09-04T17:45:36.520Z,14.67
2018-09-04T17:48:06.413Z,14.17
2018-09-04T17:50:41.385Z,13.67
2018-09-04T17:53:12.439Z,15.27
2018-09-04T17:55:41.898Z,14.53
2018-09-04T17:58:15.167Z,14.87
2018-09-04T18:00:43.520Z,14.63
2018-09-04T18:03:12.234Z,15.23
2018-09-04T18:05:41.060Z,15.90
2018-09-04T18:08:12.660Z,16.13
2018-09-04T18:11:10.010Z,14.97
2018-09-04T18:13:41.188Z,15.20
2018-09-04T18:18:44.633Z,16.07
2018-09-04T18:21:13.656Z,13.67
2018-09-04T18:23:46.570Z,13.10
2018-09-04T18:26:15.601Z,14.20
2018-09-04T18:28:47.559Z,15.10
2018-09-04T18:31:15.766Z,14.20
2018-09-04T18:33:45.557Z,14.30
2018-09-04T18:36:15.030Z,14.93
2018-09-04T18:38:51.635Z,15.30
2018-09-04T18:41:21.301Z,16.20
2018-09-04T18:43:53.335Z,15.53
2018-09-04T18:46:31.739Z,15.30
2018-09-04T18:49:02.623Z,16.03
2018-09-04T18:51:36.525Z,16.07
2018-09-04T18:54:15.136Z,15.87
2018-09-04T18:56:45.685Z,15.23
2018-09-04T18:59:15.653Z,15.77
2018-09-04T19:02:01.476Z,16.40
2018-09-04T19:04:58.598Z,17.00
2018-09-04T19:07:45.129Z,16.47
2018-09-04T19:10:16.112Z,16.67
2018-09-04T19:12:48.534Z,15.50
2018-09-04T19:15:43.433Z,15.33
2018-09-04T19:18:29.401Z,15.80
2018-09-04T19:21:33.338Z,15.93
2018-09-04T19:24:03.932Z,15.07
2018-09-04T19:26:33.102Z,15.93
2018-09-04T19:29:10.285Z,15.17
2018-09-04T19:31:40.399Z,15.83
2018-09-04T19:34:31.252Z,15.83
2018-09-04T19:37:07.252Z,15.77
2018-09-04T19:39:35.750Z,17.57
2018-09-04T19:42:08.792Z,16.83
2018-09-04T19:44:40.255Z,17.17
2018-09-04T19:47:20.925Z,16.57
2018-09-04T19:50:09.764Z,17.57
2018-09-04T19:53:25.859Z,17.90
2018-09-04T19:55:57.673Z,16.87
2018-09-04T19:58:28.579Z,18.03
2018-09-04T20:00:57.764Z,18.43
2018-09-04T20:03:31.824Z,16.80
2018-09-04T20:06:00.911Z,16.97
2018-09-04T20:08:34.323Z,17.47
2018-09-04T20:11:06.350Z,17.03
2018-09-04T20:13:38.542Z,16.00
2018-09-04T20:16:08.398Z,18.15
2018-09-04T20:18:38.880Z,16.53
2018-09-04T20:21:10.179Z,17.00
2018-09-04T20:24:17.012Z,17.00
2018-09-04T20:26:48.846Z,15.90
2018-09-04T20:29:18.960Z,16.43
2018-09-04T20:31:49.572Z,16.00
2018-09-04T20:34:23.906Z,17.27
2018-09-04T20:36:54.128Z,17.73
2018-09-04T20:39:29.894Z,17.33
2018-09-04T20:41:58.853Z,17.13
2018-09-04T20:44:29.224Z,17.73
2018-09-04T20:47:00.082Z,16.67
2018-09-04T20:49:32.621Z,16.70
2018-09-04T20:52:01.402Z,16.13
2018-09-04T20:54:29.792Z,17.30
2018-09-04T20:57:39.097Z,16.63
2018-09-04T21:00:32.867Z,16.70
2018-09-04T21:03:14.756Z,16.93
2018-09-04T21:05:54.211Z,17.03
2018-09-04T21:08:39.999Z,17.27
2018-09-04T21:11:17.376Z,16.17
2018-09-04T21:13:54.576Z,17.23
2018-09-04T21:16:26.655Z,16.37
2018-09-04T21:18:57.187Z,16.63
2018-09-04T21:21:30.101Z,16.20
2018-09-04T21:24:04.048Z,16.10
2018-09-04T21:26:32.735Z,16.53
2018-09-04T21:29:02.301Z,15.77
2018-09-04T21:31:34.976Z,16.90
2018-09-04T21:34:06.477Z,15.93
2018-09-04T21:36:36.861Z,16.37
2018-09-04T21:39:06.763Z,16.27
2018-09-04T21:41:36.962Z,16.23
2018-09-04T21:44:05.383Z,16.10
2018-09-04T21:46:33.542Z,16.50
2018-09-04T21:49:08.366Z,16.10
2018-09-04T21:51:42.667Z,15.73
2018-09-04T21:54:13.644Z,16.37
2018-09-04T21:56:43.332Z,15.87
2018-09-04T21:59:28.506Z,15.03
2018-09-04T22:01:58.838Z,15.27
2018-09-04T22:04:36.085Z,15.30
2018-09-04T22:07:09.508Z,14.93
2018-09-04T22:09:38.279Z,15.47
2018-09-04T22:12:11.782Z,16.50
2018-09-04T22:14:44.571Z,14.47
2018-09-04T22:17:16.328Z,15.50
2018-09-04T22:19:45.571Z,15.07
2018-09-04T22:22:18.523Z,14.77
2018-09-04T22:24:49.710Z,14.17
2018-09-04T22:27:18.402Z,15.00
2018-09-04T22:29:48.083Z,14.80
2018-09-04T22:32:18.008Z,15.60
2018-09-04T22:34:47.714Z,15.97
2018-09-04T22:37:17.244Z,15.50
2018-09-04T22:39:46.570Z,16.27
2018-09-04T22:42:15.764Z,15.77
2018-09-04T22:44:44.901Z,16.13
2018-09-04T22:47:13.871Z,15.67
2018-09-04T22:49:47.720Z,16.33
2018-09-04T22:52:16.438Z,16.33
2018-09-04T22:54:45.587Z,16.47
2018-09-04T22:57:13.561Z,15.40
2018-09-04T22:59:44.393Z,15.57
2018-09-04T23:02:14.152Z,15.43
2018-09-04T23:04:46.030Z,15.97
2018-09-04T23:07:15.404Z,15.53
2018-09-04T23:09:45.377Z,16.00
2018-09-04T23:12:14.897Z,16.50
2018-09-04T23:14:43.613Z,15.70
2018-09-04T23:17:11.813Z,15.07
2018-09-04T23:19:40.087Z,16.17
2018-09-04T23:22:08.283Z,15.87
2018-09-04T23:24:37.561Z,15.33
2018-09-04T23:27:15.599Z,16.50
2018-09-04T23:29:46.272Z,15.97
2018-09-04T23:32:15.255Z,16.07
2018-09-04T23:34:43.448Z,15.90
2018-09-04T23:37:12.493Z,16.43
2018-09-04T23:39:43.307Z,16.70
2018-09-04T23:42:13.277Z,17.70
2018-09-04T23:44:43.032Z,16.47
2018-09-04T23:47:11.011Z,17.70
2018-09-04T23:49:39.116Z,17.57
2018-09-04T23:52:07.638Z,17.33
2018-09-04T23:54:36.814Z,17.27
2018-09-04T23:57:05.503Z,17.73
2018-09-04T23:59:33.616Z,17.30
